CYXZ

Wawa Airport

Wawa, Ontario, Canada
METAR CYXZ 190000Z 06003KT 15SM FEW260 11/07 A3001 RMK CI1 CI TR LAST OBS/NEXT 191100 UTC SLP173
Observed Flight Rules
Sep-19 @ 00:00 UTC (5 hours ago) Visual Flight Rules
Wind Visibility Clouds
60° at 3 knots 15 miles
  • Few at 26,000' AGL
Temperatures Readings
Current 11°C / 52°F
Dewpoint 7°C / 45°F
Humidity 77%
Altimeter 30.01" Hg
Pressure 1017.3 hPa
Elevation 287
METAR CYXZ 190000Z 06003KT 15SM FEW260 11/07 A3001 RMK CI1 CI TR LAST OBS/NEXT 191100 UTC SLP173
Observed Flight Rules
Sep-19 @ 00:00 UTC
(5 hours ago)
VFR
Wind Visibility
60° at 3 knots 15 miles
Clouds
  • Few at 26,000' AGL
Temperature Dewpoint
11°C / 52°F 7°C / 45°F
Humidity Altimeter Pressure
77% 30.01" Hg 1017.3 hPa